Time;durP1;ratioP1;P1;durP2;ratioP2;P2;SDS_P1;SDS_P2;PMS_P1;PMS_P2;Temp;Humidity;BMP_temperature;BMP_pressure;BME280_temperature;BME280_humidity;BME280_pressure;Samples;Min_cycle;Max_cycle;Signal;HPM_P1;HPM_P2
2020/12/13 00:00:32;;;;;;;36.95;15.82;;;;;;;3.41;88.79;99363.69;4977977;28;20041;-78
2020/12/13 00:02:58;;;;;;;32.15;14.93;;;;;;;3.44;89.01;99368.81;4977500;28;20030;-80
2020/12/13 00:05:24;;;;;;;35.65;15.32;;;;;;;3.42;89.23;99368.03;4995306;28;20088;-78
2020/12/13 00:07:50;;;;;;;37.65;16.95;;;;;;;3.39;89.25;99356.78;4961726;28;20121;-79
2020/12/13 00:10:16;;;;;;;33.65;15.48;;;;;;;3.45;89.31;99362.59;4994925;28;20042;-77
2020/12/13 00:12:42;;;;;;;36.90;15.73;;;;;;;3.44;88.53;99368.81;4994959;28;20533;-77
2020/12/13 00:15:07;;;;;;;33.78;15.25;;;;;;;3.36;88.72;99349.84;4994716;28;20026;-83
2020/12/13 00:17:33;;;;;;;33.00;15.38;;;;;;;3.27;88.81;99355.50;4961467;28;20076;-79
2020/12/13 00:19:58;;;;;;;32.40;15.55;;;;;;;3.36;89.09;99359.53;4961203;28;20479;-81
2020/12/13 00:22:24;;;;;;;35.15;15.85;;;;;;;3.28;89.09;99357.25;4977449;28;20030;-83
2020/12/13 00:24:50;;;;;;;30.35;14.32;;;;;;;3.23;88.89;99332.00;4994794;28;20030;-82
2020/12/13 00:27:15;;;;;;;33.55;15.70;;;;;;;3.41;88.89;99374.22;4994196;28;20530;-81
2020/12/13 00:29:41;;;;;;;35.20;16.15;;;;;;;3.58;88.28;99372.63;4945338;28;20034;-80
2020/12/13 00:32:07;;;;;;;34.38;15.63;;;;;;;3.47;88.44;99372.22;4977140;28;20380;-81
2020/12/13 00:34:33;;;;;;;34.92;15.05;;;;;;;3.42;88.68;99375.94;4977302;28;20048;-80
2020/12/13 00:36:59;;;;;;;35.60;15.25;;;;;;;3.53;88.38;99377.22;4977403;28;20039;-81
2020/12/13 00:39:25;;;;;;;30.55;15.40;;;;;;;3.24;88.38;99350.38;4994678;28;20030;-81
2020/12/13 00:41:51;;;;;;;33.92;15.18;;;;;;;3.40;88.76;99383.06;4977191;28;20084;-77
2020/12/13 00:44:17;;;;;;;31.08;15.48;;;;;;;3.31;88.94;99366.78;4960717;28;20049;-78
2020/12/13 00:46:43;;;;;;;32.45;15.52;;;;;;;3.32;89.34;99379.06;4994502;28;20461;-78
2020/12/13 00:49:09;;;;;;;33.65;15.18;;;;;;;3.31;89.57;99375.56;4960755;28;20046;-78
2020/12/13 00:51:34;;;;;;;35.72;16.02;;;;;;;3.32;89.91;99374.63;4977131;28;20032;-76
2020/12/13 00:53:59;;;;;;;33.70;16.10;;;;;;;3.38;89.42;99384.06;4994443;28;20392;-77
2020/12/13 00:56:25;;;;;;;32.55;15.00;;;;;;;3.50;88.70;99382.66;4976509;28;20439;-78
2020/12/13 00:58:50;;;;;;;32.95;15.43;;;;;;;3.30;88.12;99347.50;4944631;28;20484;-82
2020/12/13 01:01:15;;;;;;;32.70;14.65;;;;;;;3.39;88.66;99380.50;4960210;28;20034;-78
2020/12/13 01:03:41;;;;;;;34.33;16.23;;;;;;;3.24;88.64;99344.25;4976597;28;20089;-78
2020/12/13 01:06:06;;;;;;;35.70;16.13;;;;;;;3.33;88.36;99349.13;4960193;28;20030;-78
2020/12/13 01:08:31;;;;;;;32.28;15.70;;;;;;;3.32;88.08;99347.41;4976982;28;20030;-77
2020/12/13 01:10:57;;;;;;;33.38;14.65;;;;;;;3.43;88.55;99385.56;4994003;28;20030;-77
2020/12/13 01:13:22;;;;;;;33.00;16.05;;;;;;;3.42;88.33;99386.47;4976341;28;20034;-78
2020/12/13 01:15:50;;;;;;;34.28;15.70;;;;;;;3.12;89.15;99361.47;4976411;28;20045;-79
2020/12/13 01:18:16;;;;;;;34.53;17.23;;;;;;;3.34;89.01;99388.59;4944565;28;20034;-78
2020/12/13 01:20:41;;;;;;;35.13;16.00;;;;;;;3.17;89.47;99376.16;4993840;28;20097;-78
2020/12/13 01:23:06;;;;;;;31.95;15.52;;;;;;;3.36;89.21;99392.00;4976065;28;20369;-78
2020/12/13 01:25:32;;;;;;;32.30;15.07;;;;;;;3.16;89.45;99373.59;4976506;28;20518;-76
2020/12/13 01:27:57;;;;;;;32.05;14.50;;;;;;;3.31;88.76;99387.88;4993633;28;20030;-78
2020/12/13 01:30:22;;;;;;;33.08;14.68;;;;;;;3.49;88.40;99402.03;4976155;28;20153;-77
2020/12/13 01:32:48;;;;;;;31.65;14.63;;;;;;;3.47;88.22;99393.31;4960787;28;20093;-77
2020/12/13 01:35:13;;;;;;;30.73;14.32;;;;;;;3.30;88.13;99365.94;4993518;28;20037;-77
2020/12/13 01:37:39;;;;;;;33.05;15.80;;;;;;;3.45;88.37;99401.28;4975911;28;20040;-78
2020/12/13 01:40:06;;;;;;;34.60;15.82;;;;;;;3.13;88.39;99361.41;4975937;28;20039;-77
2020/12/13 01:42:42;;;;;;;32.85;15.15;;;;;;;3.28;89.04;99388.00;4976460;28;20038;-78
2020/12/13 01:45:11;;;;;;;30.38;14.68;;;;;;;3.29;89.02;99390.59;4976155;28;20041;-78
2020/12/13 01:47:37;;;;;;;34.35;15.30;;;;;;;3.37;89.30;99406.03;4993497;28;20045;-78
2020/12/13 01:50:07;;;;;;;32.80;15.13;;;;;;;3.41;88.87;99410.28;4993521;28;20466;-78
2020/12/13 01:52:48;;;;;;;32.90;14.93;;;;;;;3.40;87.81;99396.25;4993503;28;20064;-78
2020/12/13 01:55:18;;;;;;;30.95;14.50;;;;;;;3.30;88.54;99394.09;4977763;28;20050;-77
2020/12/13 01:57:47;;;;;;;30.92;14.52;;;;;;;3.37;89.17;99406.03;4993423;28;20033;-74
2020/12/13 02:00:17;;;;;;;31.15;14.77;;;;;;;3.37;89.03;99414.81;4993103;28;20030;-76
2020/12/13 02:02:52;;;;;;;34.00;14.60;;;;;;;3.32;88.82;99405.41;4993329;28;20026;-74
2020/12/13 02:05:20;;;;;;;33.38;16.15;;;;;;;3.31;88.90;99396.66;4975748;28;20052;-75
2020/12/13 02:07:47;;;;;;;33.67;16.02;;;;;;;3.33;89.23;99392.16;4993123;28;20035;-75
2020/12/13 02:10:13;;;;;;;31.98;15.23;;;;;;;3.34;89.33;99400.91;4993135;28;20031;-74
2020/12/13 02:12:38;;;;;;;29.67;14.38;;;;;;;3.58;87.46;99406.91;4993590;28;20105;-76
2020/12/13 02:15:06;;;;;;;33.13;15.55;;;;;;;3.36;88.42;99399.06;4975923;28;20035;-75
2020/12/13 02:17:34;;;;;;;29.55;13.75;;;;;;;3.41;88.17;99400.59;4993334;28;20065;-75
2020/12/13 02:20:04;;;;;;;29.05;14.38;;;;;;;3.49;87.96;99412.59;4975699;28;20504;-75
2020/12/13 02:22:30;;;;;;;32.35;14.77;;;;;;;3.44;88.14;99405.72;4992803;28;20038;-75
2020/12/13 02:25:08;;;;;;;32.05;16.15;;;;;;;3.39;89.01;99407.72;4975915;28;20038;-76
2020/12/13 02:27:34;;;;;;;28.00;14.35;;;;;;;3.35;88.66;99415.81;4993588;28;20472;-77
2020/12/13 02:29:59;;;;;;;19.30;9.00;;;;;;;3.13;88.67;99389.53;4993511;28;20097;-76
2020/12/13 02:32:24;;;;;;;27.98;12.63;;;;;;;3.14;89.37;99417.59;4992863;28;20444;-77
2020/12/13 02:34:50;;;;;;;26.52;11.95;;;;;;;3.02;89.34;99381.25;4960124;28;20046;-78
2020/12/13 02:37:16;;;;;;;27.90;12.98;;;;;;;3.08;89.63;99407.31;4992946;28;20479;-79
2020/12/13 02:39:41;;;;;;;30.10;14.23;;;;;;;3.05;89.58;99402.19;4959540;28;20088;-79
2020/12/13 02:42:06;;;;;;;29.05;13.50;;;;;;;2.77;90.00;99361.22;4993170;28;20488;-79
2020/12/13 02:44:32;;;;;;;26.65;13.30;;;;;;;2.98;89.61;99390.19;4992783;28;20038;-80
2020/12/13 02:46:57;;;;;;;26.77;13.55;;;;;;;2.77;89.67;99358.56;4943674;28;20038;-80
2020/12/13 02:49:22;;;;;;;28.48;13.82;;;;;;;3.09;89.76;99399.38;4960404;28;20048;-76
2020/12/13 02:51:48;;;;;;;33.35;15.30;;;;;;;3.11;89.42;99400.16;4997125;28;20034;-82
2020/12/13 02:54:13;;;;;;;28.98;14.55;;;;;;;2.96;89.90;99381.50;4962878;28;20042;-85
2020/12/13 02:56:41;;;;;;;28.30;13.70;;;;;;;3.00;90.02;99396.28;4949228;28;20038;-83
2020/12/13 02:59:07;;;;;;;27.17;12.88;;;;;;;3.10;89.62;99392.31;4978970;28;20180;-78
2020/12/13 03:01:32;;;;;;;30.15;13.15;;;;;;;3.01;90.14;99406.75;4978942;28;20108;-77
2020/12/13 03:03:58;;;;;;;31.95;14.75;;;;;;;2.90;90.31;99387.06;4978902;28;20469;-78
2020/12/13 03:06:23;;;;;;;30.23;13.55;;;;;;;2.81;90.66;99383.88;4995901;28;20084;-78
2020/12/13 03:08:49;;;;;;;34.08;14.65;;;;;;;2.80;91.15;99386.59;4978929;28;20073;-78
2020/12/13 03:11:19;;;;;;;33.65;14.07;;;;;;;2.87;90.65;99409.94;4995753;28;20472;-78
2020/12/13 03:13:45;;;;;;;34.47;14.45;;;;;;;2.84;90.89;99407.44;4979632;28;20038;-77
2020/12/13 03:16:10;;;;;;;34.83;14.75;;;;;;;2.85;91.08;99403.88;4995793;28;20038;-80
2020/12/13 03:18:35;;;;;;;32.67;15.20;;;;;;;2.78;90.69;99391.88;4978699;28;20039;-78
2020/12/13 03:21:01;;;;;;;32.65;14.82;;;;;;;2.91;90.01;99399.31;4978565;28;20100;-77
2020/12/13 03:23:26;;;;;;;31.15;14.85;;;;;;;3.01;89.99;99419.06;4962246;28;20035;-84
2020/12/13 03:25:51;;;;;;;34.63;14.65;;;;;;;3.05;89.31;99420.63;4946736;28;20058;-83
2020/12/13 03:28:17;;;;;;;27.38;13.85;;;;;;;2.99;89.62;99419.13;4962172;28;20080;-79
2020/12/13 03:30:42;;;;;;;35.00;15.40;;;;;;;3.06;89.49;99430.25;4946445;28;20057;-81
2020/12/13 03:33:08;;;;;;;32.47;14.27;;;;;;;3.03;89.19;99430.38;4978261;28;20112;-80
2020/12/13 03:35:33;;;;;;;32.33;14.50;;;;;;;3.15;88.56;99432.50;4977985;28;20068;-78
2020/12/13 03:37:58;;;;;;;29.55;13.90;;;;;;;2.85;88.09;99385.44;4978512;28;20034;-80
2020/12/13 03:40:24;;;;;;;30.08;13.93;;;;;;;3.05;88.48;99433.81;4978144;28;20097;-80
2020/12/13 03:42:49;;;;;;;28.60;13.88;;;;;;;3.04;88.21;99438.22;4978471;28;20406;-77
2020/12/13 03:45:15;;;;;;;29.35;14.43;;;;;;;3.02;88.51;99433.94;4977723;28;20034;-79
2020/12/13 03:47:40;;;;;;;29.08;13.77;;;;;;;3.03;88.63;99430.38;4945937;28;20058;-83
2020/12/13 03:50:06;;;;;;;30.80;15.20;;;;;;;3.00;88.06;99434.00;4978560;28;20117;-83
2020/12/13 03:52:31;;;;;;;31.40;14.88;;;;;;;2.71;88.49;99379.94;4945728;28;21090;-81
2020/12/13 03:54:56;;;;;;;29.30;13.60;;;;;;;2.75;87.92;99393.81;4995358;28;20096;-81
2020/12/13 03:57:22;;;;;;;26.88;13.05;;;;;;;3.02;87.90;99447.97;4977784;28;20041;-82
2020/12/13 03:59:47;;;;;;;31.50;14.07;;;;;;;2.99;88.05;99445.47;4977952;28;20038;-81
2020/12/13 04:02:13;;;;;;;26.17;12.57;;;;;;;2.92;87.75;99449.28;4960903;28;20026;-82
2020/12/13 04:04:38;;;;;;;27.65;12.77;;;;;;;2.62;88.07;99409.28;4978094;28;20050;-80
2020/12/13 04:07:03;;;;;;;31.48;14.27;;;;;;;2.68;88.80;99443.22;4977781;28;20472;-81
2020/12/13 04:09:29;;;;;;;27.65;13.90;;;;;;;2.87;88.15;99452.09;4977776;28;20045;-81
2020/12/13 04:11:54;;;;;;;29.85;14.02;;;;;;;2.81;88.53;99456.78;4977552;28;20038;-81
2020/12/13 04:14:20;;;;;;;30.00;14.25;;;;;;;2.62;88.08;99432.13;4961132;28;20117;-81
2020/12/13 04:16:45;;;;;;;26.05;12.95;;;;;;;2.78;87.42;99463.00;4995087;28;20032;-82
2020/12/13 04:19:10;;;;;;;28.13;13.00;;;;;;;2.68;88.05;99445.88;4994353;28;20053;-80
2020/12/13 04:21:37;;;;;;;28.02;13.50;;;;;;;2.75;88.34;99465.78;4977107;28;20506;-81
2020/12/13 04:24:02;;;;;;;29.80;13.80;;;;;;;2.75;88.02;99457.88;4977777;28;20041;-80
2020/12/13 04:26:28;;;;;;;26.50;13.23;;;;;;;2.48;88.88;99432.66;4994465;28;20034;-82
2020/12/13 04:28:53;;;;;;;28.08;13.48;;;;;;;2.69;88.41;99468.63;4961123;28;20518;-81
2020/12/13 04:31:18;;;;;;;29.23;14.48;;;;;;;2.74;88.02;99471.97;4977070;28;20038;-84
2020/12/13 04:33:44;;;;;;;25.45;12.23;;;;;;;2.74;87.53;99487.75;4977550;28;20065;-84
2020/12/13 04:36:09;;;;;;;24.65;12.32;;;;;;;2.65;88.00;99461.78;4977338;28;20483;-82
2020/12/13 04:38:34;;;;;;;23.23;11.02;;;;;;;2.69;87.90;99476.53;4960732;28;20060;-82
2020/12/13 04:41:00;;;;;;;24.10;12.77;;;;;;;2.63;88.45;99475.94;4977206;28;20422;-81
2020/12/13 04:43:26;;;;;;;22.13;10.95;;;;;;;2.60;88.58;99474.28;4960788;28;20027;-81
2020/12/13 04:45:51;;;;;;;25.58;11.63;;;;;;;2.53;88.56;99457.03;4994615;28;20034;-80
2020/12/13 04:48:17;;;;;;;24.80;12.60;;;;;;;2.65;88.99;99477.59;4976609;28;20468;-81
2020/12/13 04:50:49;;;;;;;28.75;12.00;;;;;;;2.69;88.63;99473.06;4977519;28;20038;-81
2020/12/13 04:53:16;;;;;;;24.38;11.70;;;;;;;2.74;88.13;99476.38;4977272;28;20196;-77
2020/12/13 04:55:56;;;;;;;29.50;12.25;;;;;;;2.60;89.24;99476.91;4977039;28;20125;-78
2020/12/13 04:58:22;;;;;;;24.92;11.98;;;;;;;2.63;89.04;99473.31;4993831;28;20044;-76
2020/12/13 05:00:57;;;;;;;23.35;12.27;;;;;;;2.66;89.13;99481.94;4976780;28;20528;-79
2020/12/13 05:03:25;;;;;;;34.92;13.07;;;;;;;2.60;89.43;99479.53;4976487;28;20126;-79
2020/12/13 05:05:51;;;;;;;28.27;13.05;;;;;;;2.63;89.72;99481.22;4977265;28;20117;-84
2020/12/13 05:08:17;;;;;;;27.27;12.85;;;;;;;2.42;89.33;99439.03;4976561;28;20474;-82
2020/12/13 05:10:42;;;;;;;27.40;12.70;;;;;;;2.68;89.50;99482.72;4976897;28;20084;-78
2020/12/13 05:13:09;;;;;;;26.73;11.98;;;;;;;2.57;89.65;99469.13;4975730;28;20387;-77
2020/12/13 05:15:36;;;;;;;24.90;12.35;;;;;;;2.66;89.51;99488.97;4976414;28;20469;-79
2020/12/13 05:18:02;;;;;;;26.35;12.15;;;;;;;2.63;89.83;99483.84;4976342;28;20041;-78
2020/12/13 05:20:27;;;;;;;26.85;12.40;;;;;;;2.61;89.82;99491.81;4993736;28;20469;-78
2020/12/13 05:22:55;;;;;;;25.10;11.32;;;;;;;2.65;89.77;99482.88;4976919;28;20034;-77
2020/12/13 05:25:37;;;;;;;24.17;11.30;;;;;;;2.74;88.94;99490.41;4960174;28;20042;-77
2020/12/13 05:28:09;;;;;;;23.77;11.85;;;;;;;2.66;88.41;99474.03;4961699;28;20034;-78
2020/12/13 05:30:48;;;;;;;23.20;11.25;;;;;;;2.72;88.31;99476.44;4976478;28;20042;-78
2020/12/13 05:33:34;;;;;;;25.20;11.23;;;;;;;2.76;88.88;99490.31;4993824;28;20030;-76
2020/12/13 05:36:02;;;;;;;24.13;11.30;;;;;;;2.74;88.39;99493.03;4993607;28;20039;-77
2020/12/13 05:38:38;;;;;;;24.00;10.80;;;;;;;2.78;88.23;99493.75;4993429;28;20097;-77
2020/12/13 05:41:05;;;;;;;25.85;11.27;;;;;;;2.78;88.67;99499.88;4993799;28;20042;-78
2020/12/13 05:43:34;;;;;;;24.23;10.40;;;;;;;2.61;88.05;99462.84;4975805;28;20089;-78
2020/12/13 05:48:55;;;;;;;23.77;10.57;;;;;;;2.73;88.74;99501.84;4993616;28;20073;-77
2020/12/13 05:51:37;;;;;;;22.90;11.40;;;;;;;2.76;88.24;99500.84;4975935;28;20047;-80
2020/12/13 05:54:04;;;;;;;24.45;10.10;;;;;;;2.50;88.59;99460.63;4978615;28;20092;-77
2020/12/13 05:56:30;;;;;;;21.55;9.75;;;;;;;2.64;87.93;99473.25;4975713;28;20027;-78
2020/12/13 05:58:58;;;;;;;22.58;10.52;;;;;;;2.82;88.13;99512.03;4993393;28;20390;-80
2020/12/13 06:01:25;;;;;;;24.15;11.32;;;;;;;2.81;88.05;99510.31;4976148;28;20058;-78
2020/12/13 06:03:52;;;;;;;20.92;10.25;;;;;;;2.85;87.77;99517.16;4976450;28;20476;-78
2020/12/13 06:06:23;;;;;;;21.38;10.27;;;;;;;2.75;88.63;99513.16;4993571;28;20053;-79
2020/12/13 06:09:05;;;;;;;22.23;10.88;;;;;;;2.75;88.05;99517.59;4993344;28;20039;-77
2020/12/13 06:11:35;;;;;;;19.33;9.23;;;;;;;2.80;88.01;99510.38;4975471;28;20038;-77
2020/12/13 06:14:10;;;;;;;19.15;9.88;;;;;;;2.75;88.13;99514.94;4993238;28;20026;-76
2020/12/13 06:16:35;;;;;;;20.25;10.02;;;;;;;2.74;88.12;99519.38;4975884;28;20073;-81
2020/12/13 06:19:03;;;;;;;22.48;10.18;;;;;;;2.66;88.13;99520.59;4993292;28;20427;-80
2020/12/13 06:21:29;;;;;;;21.13;9.75;;;;;;;2.57;88.48;99506.00;4959693;28;20399;-81
2020/12/13 06:23:56;;;;;;;20.30;9.48;;;;;;;2.45;88.48;99482.78;4960727;28;20044;-81
2020/12/13 06:26:22;;;;;;;21.15;9.40;;;;;;;2.70;88.01;99520.41;4963402;28;20045;-83
2020/12/13 06:28:48;;;;;;;22.10;10.15;;;;;;;2.76;88.17;99528.06;4997169;28;20042;-79
2020/12/13 06:31:17;;;;;;;20.10;9.48;;;;;;;2.72;88.05;99526.47;4979710;28;20047;-77
2020/12/13 06:33:42;;;;;;;18.48;9.23;;;;;;;2.81;87.61;99531.38;4996640;28;20846;-78
2020/12/13 06:36:09;;;;;;;20.23;10.30;;;;;;;2.71;87.83;99530.03;4979435;28;20034;-77
2020/12/13 06:38:36;;;;;;;21.25;10.15;;;;;;;2.74;87.67;99529.03;4996311;28;20030;-81
2020/12/13 06:41:08;;;;;;;19.20;9.88;;;;;;;2.75;87.86;99525.47;4979633;28;20073;-78
2020/12/13 06:43:55;;;;;;;19.95;9.90;;;;;;;2.75;88.02;99528.97;4996587;28;20034;-80
2020/12/13 06:46:22;;;;;;;21.55;10.23;;;;;;;2.73;87.99;99528.19;4996832;28;20022;-79
2020/12/13 06:48:47;;;;;;;21.73;10.50;;;;;;;2.73;87.34;99527.34;4996246;28;20067;-81
2020/12/13 06:51:18;;;;;;;22.38;10.55;;;;;;;2.68;87.99;99530.13;4996418;28;20026;-80
2020/12/13 06:53:44;;;;;;;20.35;10.15;;;;;;;2.64;87.44;99520.66;4962715;28;20065;-79
2020/12/13 06:56:11;;;;;;;20.05;9.65;;;;;;;2.48;87.33;99498.47;4996396;28;20030;-77
2020/12/13 06:58:57;;;;;;;19.98;10.00;;;;;;;2.67;88.14;99535.47;4978644;28;20164;-78
2020/12/13 07:01:32;;;;;;;20.92;9.68;;;;;;;2.64;88.26;99533.81;4996282;28;20061;-78
2020/12/13 07:03:58;;;;;;;21.67;10.55;;;;;;;2.63;88.17;99537.38;4996701;28;20185;-77
2020/12/13 07:06:41;;;;;;;21.17;10.32;;;;;;;2.76;87.95;99554.38;4996442;28;20046;-76
2020/12/13 07:09:07;;;;;;;24.73;10.88;;;;;;;2.83;87.64;99555.88;4996642;28;20069;-76
2020/12/13 07:11:33;;;;;;;20.13;10.18;;;;;;;2.84;87.35;99564.63;4995856;28;20121;-76
2020/12/13 07:14:04;;;;;;;23.38;10.32;;;;;;;2.84;87.96;99560.22;4978620;28;20133;-76
2020/12/13 07:16:35;;;;;;;19.35;10.05;;;;;;;2.83;87.80;99568.19;4995886;28;20161;-76
2020/12/13 07:19:04;;;;;;;20.80;10.35;;;;;;;2.88;87.17;99558.31;4996332;28;20034;-77
2020/12/13 07:21:29;;;;;;;22.10;10.55;;;;;;;2.81;87.37;99565.63;4995895;28;20464;-76
2020/12/13 07:23:58;;;;;;;21.92;10.25;;;;;;;2.53;87.28;99509.69;4978488;28;20064;-76
2020/12/13 07:26:25;;;;;;;24.52;11.00;;;;;;;2.84;87.61;99565.47;4996367;28;20028;-78
2020/12/13 07:28:51;;;;;;;19.02;10.05;;;;;;;2.63;87.41;99536.50;4995661;28;20093;-77
2020/12/13 07:31:19;;;;;;;20.58;10.82;;;;;;;2.86;87.72;99574.19;4978585;28;20030;-76
2020/12/13 07:33:46;;;;;;;17.98;9.75;;;;;;;2.92;87.16;99569.59;4978139;28;20379;-78
2020/12/13 07:36:11;;;;;;;19.77;10.25;;;;;;;3.03;86.52;99567.38;4994759;28;20468;-78
2020/12/13 07:38:41;;;;;;;17.67;9.65;;;;;;;3.03;86.68;99578.78;4977811;28;20022;-77
2020/12/13 07:41:14;;;;;;;22.70;10.63;;;;;;;3.00;86.97;99573.66;4995588;28;20101;-78
2020/12/13 07:43:52;;;;;;;23.40;11.02;;;;;;;2.99;86.91;99584.22;4995371;28;20026;-80
2020/12/13 07:46:18;;;;;;;22.17;10.10;;;;;;;3.06;86.65;99588.34;4978396;28;20045;-86
2020/12/13 07:48:44;;;;;;;21.40;9.77;;;;;;;3.04;86.53;99584.91;4961970;28;20125;-85
2020/12/13 07:51:10;;;;;;;19.75;9.93;;;;;;;2.86;86.21;99545.19;4978276;28;20117;-85
2020/12/13 07:53:35;;;;;;;20.80;10.40;;;;;;;3.13;85.91;99593.31;4977777;28;20056;-84
2020/12/13 07:56:00;;;;;;;21.73;10.07;;;;;;;2.86;86.11;99539.06;4978309;28;20486;-84
2020/12/13 07:58:26;;;;;;;20.02;10.13;;;;;;;3.15;85.86;99588.81;4978124;28;20042;-78
2020/12/13 08:00:51;;;;;;;21.58;10.40;;;;;;;3.01;85.94;99572.72;4977799;28;20030;-78
2020/12/13 08:03:16;;;;;;;22.42;10.43;;;;;;;3.15;86.59;99599.38;4977866;28;20047;-78
2020/12/13 08:05:44;;;;;;;21.63;11.00;;;;;;;3.03;86.18;99578.78;4994559;28;20080;-78
2020/12/13 08:08:10;;;;;;;21.98;10.90;;;;;;;3.19;85.34;99594.84;4977870;28;20034;-77
2020/12/13 08:10:35;;;;;;;21.90;10.55;;;;;;;3.10;85.73;99577.63;4995018;28;20038;-77
2020/12/13 08:13:03;;;;;;;21.42;10.82;;;;;;;3.29;86.09;99600.59;4961606;28;20033;-79
2020/12/13 08:15:28;;;;;;;25.30;11.13;;;;;;;3.10;85.13;99563.59;4977688;28;20037;-77
2020/12/13 08:18:04;;;;;;;19.40;10.85;;;;;;;3.29;85.68;99608.50;4994481;28;20038;-79
2020/12/13 08:20:32;;;;;;;22.20;10.73;;;;;;;3.28;85.34;99605.03;4977305;28;20034;-81
2020/12/13 08:23:02;;;;;;;22.65;11.48;;;;;;;3.23;85.49;99608.75;4977322;28;20549;-76
2020/12/13 08:25:28;;;;;;;22.70;11.13;;;;;;;3.13;86.20;99606.47;4995018;28;20069;-79
2020/12/13 08:27:56;;;;;;;23.63;11.50;;;;;;;3.13;85.90;99616.16;4977094;28;20446;-78
2020/12/13 08:30:22;;;;;;;28.33;11.73;;;;;;;3.12;86.50;99611.81;4995247;28;20035;-78
2020/12/13 08:32:48;;;;;;;26.35;11.93;;;;;;;3.10;86.70;99618.94;4981492;28;20045;-79
2020/12/13 08:35:18;;;;;;;23.63;11.57;;;;;;;3.18;86.21;99622.09;4994419;28;20492;-80
2020/12/13 08:37:58;;;;;;;24.55;12.10;;;;;;;3.12;85.65;99607.41;4977307;28;20117;-78
2020/12/13 08:40:46;;;;;;;23.98;11.60;;;;;;;3.32;85.62;99627.69;4994654;28;20065;-81
2020/12/13 08:43:19;;;;;;;24.70;11.27;;;;;;;3.37;85.79;99628.34;4994598;28;20483;-81
2020/12/13 08:45:55;;;;;;;26.33;11.43;;;;;;;3.52;84.82;99647.09;4976950;28;20030;-76
2020/12/13 08:48:25;;;;;;;27.58;12.35;;;;;;;3.35;85.20;99632.81;4994191;28;20045;-77
2020/12/13 08:51:04;;;;;;;27.23;12.00;;;;;;;3.53;84.41;99635.63;4994464;28;20054;-80
2020/12/13 08:53:29;;;;;;;21.77;11.18;;;;;;;3.56;83.63;99644.28;4994959;28;20468;-82
2020/12/13 08:56:02;;;;;;;23.63;12.07;;;;;;;3.61;84.79;99638.81;4960594;28;20046;-79
2020/12/13 08:58:27;;;;;;;24.85;12.43;;;;;;;3.54;84.69;99629.44;4977015;28;20034;-82
2020/12/13 09:01:04;;;;;;;26.20;11.27;;;;;;;3.68;84.81;99654.34;4977085;28;20204;-78
2020/12/13 09:03:29;;;;;;;27.50;13.20;;;;;;;3.62;84.25;99657.22;4976782;28;20030;-81
2020/12/13 09:05:54;;;;;;;24.23;11.25;;;;;;;3.50;84.17;99651.59;4977074;28;20030;-82
2020/12/13 09:08:23;;;;;;;24.40;11.65;;;;;;;3.61;84.35;99660.78;4977457;28;20069;-77
2020/12/13 09:10:51;;;;;;;22.83;11.20;;;;;;;3.59;84.73;99662.63;4993873;28;20038;-79
2020/12/13 09:13:16;;;;;;;26.33;11.23;;;;;;;3.43;85.14;99650.97;4977107;28;20034;-76
2020/12/13 09:15:42;;;;;;;24.17;10.90;;;;;;;3.57;84.83;99659.19;4976258;28;20030;-76
2020/12/13 09:18:09;;;;;;;22.58;11.05;;;;;;;3.61;84.24;99658.13;4976404;28;20057;-77
2020/12/13 09:20:38;;;;;;;22.58;11.40;;;;;;;3.57;84.38;99647.75;4975975;28;20026;-80
2020/12/13 09:23:04;;;;;;;22.63;10.98;;;;;;;3.79;84.00;99658.31;4976423;28;20031;-77
2020/12/13 09:25:39;;;;;;;25.55;11.05;;;;;;;3.87;83.65;99659.69;4993566;28;20522;-77
2020/12/13 09:28:05;;;;;;;22.17;10.85;;;;;;;3.81;83.63;99652.03;4993754;28;20494;-76
2020/12/13 09:30:31;;;;;;;20.17;10.55;;;;;;;3.55;83.81;99607.41;4993741;28;20022;-75
2020/12/13 09:32:57;;;;;;;23.25;11.35;;;;;;;3.63;83.36;99629.06;4976030;28;20491;-76
2020/12/13 09:35:22;;;;;;;21.70;10.60;;;;;;;3.96;82.88;99661.94;4993616;28;20093;-75
2020/12/13 09:37:48;;;;;;;20.98;10.23;;;;;;;4.06;82.28;99656.28;4993299;28;20050;-77
2020/12/13 09:40:13;;;;;;;23.27;10.95;;;;;;;4.02;82.38;99666.94;4976431;28;20038;-78
2020/12/13 09:42:39;;;;;;;23.08;11.77;;;;;;;3.75;82.34;99615.34;4975291;28;20058;-78
2020/12/13 09:45:04;;;;;;;20.30;10.52;;;;;;;3.99;82.03;99658.31;4993600;28;20034;-78
2020/12/13 09:47:30;;;;;;;22.42;11.00;;;;;;;3.84;82.02;99648.41;4993499;28;20035;-78
2020/12/13 09:49:58;;;;;;;23.00;10.98;;;;;;;3.82;81.85;99627.38;4959810;28;20042;-77
2020/12/13 09:52:24;;;;;;;22.77;11.55;;;;;;;3.96;83.06;99646.13;4960329;28;20041;-74
2020/12/13 09:54:50;;;;;;;23.70;12.27;;;;;;;4.10;82.78;99653.44;4993531;28;20054;-79
2020/12/13 09:57:15;;;;;;;26.27;12.40;;;;;;;4.07;82.81;99660.63;4976343;28;20117;-78
2020/12/13 09:59:40;;;;;;;26.13;12.75;;;;;;;3.96;83.63;99661.09;4977978;28;20039;-79
2020/12/13 10:02:06;;;;;;;25.92;13.43;;;;;;;4.17;82.35;99659.31;4980045;28;20030;-74
2020/12/13 10:04:31;;;;;;;26.00;12.75;;;;;;;4.31;81.54;99656.91;4979478;28;20029;-74
2020/12/13 10:07:25;;;;;;;22.58;11.60;;;;;;;4.19;81.37;99658.31;4979140;28;20041;-76
2020/12/13 10:09:51;;;;;;;22.88;11.80;;;;;;;4.33;81.54;99655.06;4997176;28;20042;-73
2020/12/13 10:12:16;;;;;;;22.80;11.90;;;;;;;4.38;80.99;99658.38;4997471;28;20030;-75
2020/12/13 10:14:42;;;;;;;23.42;11.73;;;;;;;4.36;80.33;99643.53;4997453;28;20049;-75
2020/12/13 10:17:07;;;;;;;24.35;11.85;;;;;;;4.39;81.31;99662.72;4997260;28;20062;-75
2020/12/13 10:19:33;;;;;;;23.20;11.23;;;;;;;4.32;80.85;99643.63;4979632;28;20158;-75
2020/12/13 10:21:58;;;;;;;24.35;11.27;;;;;;;4.43;81.26;99645.81;4979427;28;20116;-76
2020/12/13 10:24:24;;;;;;;22.55;10.63;;;;;;;4.49;80.68;99653.47;4965844;28;20037;-74
2020/12/13 10:26:49;;;;;;;22.10;10.63;;;;;;;4.45;80.18;99648.41;5006080;28;20031;-74
2020/12/13 10:29:15;;;;;;;22.63;10.98;;;;;;;4.44;80.69;99636.97;4997474;28;20034;-77
2020/12/13 10:31:46;;;;;;;19.90;10.38;;;;;;;4.39;81.13;99646.88;4997111;28;20042;-80
2020/12/13 10:34:11;;;;;;;23.67;10.88;;;;;;;4.44;81.60;99652.81;4996874;28;20034;-84
2020/12/13 10:36:39;;;;;;;19.60;10.15;;;;;;;4.36;80.71;99649.66;4979579;28;20693;-77
2020/12/13 10:39:06;;;;;;;22.83;11.52;;;;;;;4.19;80.70;99615.22;4963243;28;20046;-82
2020/12/13 10:41:32;;;;;;;19.75;9.98;;;;;;;4.43;79.58;99656.38;4979167;28;20041;-77
2020/12/13 10:43:58;;;;;;;18.77;10.05;;;;;;;4.43;80.68;99655.50;4996362;28;20042;-75
2020/12/13 10:46:23;;;;;;;24.30;10.65;;;;;;;4.42;80.32;99659.06;4996461;28;20395;-79
2020/12/13 10:48:49;;;;;;;21.20;11.52;;;;;;;4.41;80.64;99646.81;4975928;28;20039;-78
2020/12/13 10:51:16;;;;;;;23.13;11.38;;;;;;;4.36;80.19;99632.97;4976807;28;20068;-80
2020/12/13 10:53:43;;;;;;;25.38;11.10;;;;;;;4.44;80.42;99662.50;4959146;28;20518;-78
2020/12/13 10:56:09;;;;;;;21.77;10.10;;;;;;;4.24;81.34;99655.47;4974639;28;20034;-84
2020/12/13 10:58:35;;;;;;;20.75;10.75;;;;;;;4.27;81.12;99656.19;4958881;28;20043;-81
2020/12/13 11:01:01;;;;;;;20.92;11.13;;;;;;;4.41;80.26;99646.81;4977364;28;20081;-80
2020/12/13 11:03:28;;;;;;;20.40;10.07;;;;;;;4.53;80.54;99667.38;4975755;28;20126;-79
2020/12/13 11:05:54;;;;;;;24.13;11.18;;;;;;;4.43;79.54;99616.75;4974741;28;20031;-82
2020/12/13 11:08:22;;;;;;;25.98;12.18;;;;;;;4.67;79.19;99658.84;4975973;28;20396;-83
2020/12/13 11:10:48;;;;;;;26.17;11.45;;;;;;;4.69;79.77;99659.63;4974584;28;20086;-78
2020/12/13 11:13:15;;;;;;;21.58;11.02;;;;;;;4.53;79.76;99660.31;4974777;28;20110;-80
2020/12/13 11:15:42;;;;;;;24.08;11.68;;;;;;;4.52;80.01;99650.66;4958126;28;20039;-83
2020/12/13 11:18:08;;;;;;;25.45;12.13;;;;;;;4.50;81.04;99652.53;4972217;28;20045;-76
2020/12/13 11:20:33;;;;;;;24.65;11.48;;;;;;;4.53;79.74;99660.31;4975518;28;20042;-79
2020/12/13 11:22:58;;;;;;;24.15;12.05;;;;;;;4.25;80.52;99644.00;4975138;28;20034;-76
2020/12/13 11:25:24;;;;;;;28.45;12.55;;;;;;;4.30;80.85;99655.19;4976040;28;20113;-79
2020/12/13 11:27:49;;;;;;;24.80;12.68;;;;;;;4.37;81.67;99656.66;4976431;28;20027;-79
2020/12/13 11:30:15;;;;;;;26.08;12.27;;;;;;;4.25;82.33;99654.56;4975035;28;20177;-78